createdAt,value
2017-10-03T00:01:04.085Z,5.80
2017-10-03T00:03:30.317Z,5.72
2017-10-03T00:05:56.574Z,5.66
2017-10-03T00:08:22.755Z,5.74
2017-10-03T00:10:48.990Z,5.60
2017-10-03T00:13:15.224Z,5.67
2017-10-03T00:15:41.451Z,5.69
2017-10-03T00:18:07.701Z,5.69
2017-10-03T00:20:33.909Z,5.65
2017-10-03T00:23:00.158Z,5.59
2017-10-03T00:25:26.387Z,5.60
2017-10-03T00:27:52.613Z,5.55
2017-10-03T00:30:18.837Z,5.48
2017-10-03T00:32:45.093Z,5.53
2017-10-03T00:35:11.294Z,5.68
2017-10-03T00:37:37.523Z,5.78
2017-10-03T00:40:03.751Z,5.70
2017-10-03T00:42:29.903Z,5.60
2017-10-03T00:44:56.124Z,5.61
2017-10-03T00:47:22.349Z,5.54
2017-10-03T00:49:48.563Z,5.46
2017-10-03T00:52:14.810Z,5.35
2017-10-03T00:54:41.040Z,5.29
2017-10-03T00:57:07.246Z,5.29
2017-10-03T00:59:33.505Z,5.30
2017-10-03T01:01:59.730Z,5.31
2017-10-03T01:04:25.949Z,5.32
2017-10-03T01:06:52.186Z,5.31
2017-10-03T01:09:18.409Z,5.31
2017-10-03T01:11:44.630Z,5.30
2017-10-03T01:14:10.875Z,5.23
2017-10-03T01:16:37.096Z,5.24
2017-10-03T01:19:03.352Z,5.23
2017-10-03T01:21:29.566Z,5.22
2017-10-03T01:23:55.797Z,5.25
2017-10-03T01:26:22.019Z,5.20
2017-10-03T01:28:48.248Z,5.16
2017-10-03T01:31:14.491Z,5.15
2017-10-03T01:33:40.708Z,5.14
2017-10-03T01:36:06.932Z,5.10
2017-10-03T01:38:33.181Z,5.08
2017-10-03T01:40:59.396Z,5.02
2017-10-03T01:43:25.640Z,4.99
2017-10-03T01:45:51.871Z,5.00
2017-10-03T01:48:18.084Z,5.04
2017-10-03T01:50:45.358Z,5.01
2017-10-03T01:53:11.577Z,5.02
2017-10-03T01:55:37.804Z,4.99
2017-10-03T01:58:04.031Z,4.97
2017-10-03T02:00:30.275Z,5.01
2017-10-03T02:02:56.478Z,4.99
2017-10-03T02:05:22.723Z,4.92
2017-10-03T02:07:48.951Z,4.85
2017-10-03T02:10:15.164Z,4.91
2017-10-03T02:12:41.398Z,4.96
2017-10-03T02:15:07.636Z,4.98
2017-10-03T02:17:33.872Z,4.96
2017-10-03T02:20:00.086Z,4.91
2017-10-03T02:22:26.330Z,4.95
2017-10-03T02:24:52.564Z,4.92
2017-10-03T02:27:18.722Z,4.90
2017-10-03T02:29:44.919Z,4.91
2017-10-03T02:32:11.148Z,4.88
2017-10-03T02:34:37.377Z,4.82
2017-10-03T02:37:03.605Z,4.79
2017-10-03T02:39:29.849Z,4.80
2017-10-03T02:41:56.070Z,4.77
2017-10-03T02:44:22.292Z,4.73
2017-10-03T02:46:48.531Z,4.80
2017-10-03T02:49:14.743Z,4.80
2017-10-03T02:51:40.978Z,4.77
2017-10-03T02:54:07.206Z,4.65
2017-10-03T02:56:33.444Z,4.67
2017-10-03T02:58:59.661Z,4.69
2017-10-03T03:01:25.901Z,4.68
2017-10-03T03:03:52.127Z,4.65
2017-10-03T03:06:18.363Z,4.60
2017-10-03T03:08:44.579Z,4.50
2017-10-03T03:11:10.831Z,4.47
2017-10-03T03:13:37.054Z,4.47
2017-10-03T03:16:03.276Z,4.41
2017-10-03T03:18:29.506Z,4.44
2017-10-03T03:20:55.742Z,4.39
2017-10-03T03:23:21.974Z,4.37
2017-10-03T03:25:48.185Z,4.41
2017-10-03T03:28:14.427Z,4.42
2017-10-03T03:30:40.658Z,4.36
2017-10-03T03:33:06.902Z,4.33
2017-10-03T03:35:33.131Z,4.25
2017-10-03T03:37:59.362Z,4.30
2017-10-03T03:40:25.584Z,4.19
2017-10-03T03:42:51.831Z,4.29
2017-10-03T03:45:18.065Z,4.33
2017-10-03T03:47:44.270Z,4.30
2017-10-03T03:50:10.500Z,4.29
2017-10-03T03:52:36.728Z,4.28
2017-10-03T03:55:02.962Z,4.31
2017-10-03T03:57:29.184Z,4.30
2017-10-03T03:59:55.403Z,4.28
2017-10-03T04:02:21.635Z,4.23
2017-10-03T04:04:47.898Z,4.17
2017-10-03T04:07:14.103Z,4.16
2017-10-03T04:09:40.322Z,4.17
2017-10-03T04:12:06.569Z,4.13
2017-10-03T04:14:32.819Z,4.15
2017-10-03T04:16:59.064Z,4.17
2017-10-03T04:19:25.261Z,4.19
2017-10-03T04:21:51.484Z,4.22
2017-10-03T04:24:18.006Z,4.22
2017-10-03T04:26:44.236Z,4.22
2017-10-03T04:29:10.480Z,4.25
2017-10-03T04:31:36.719Z,4.30
2017-10-03T04:34:02.950Z,4.33
2017-10-03T04:36:29.170Z,4.70
2017-10-03T04:38:55.401Z,5.15
2017-10-03T04:41:21.623Z,5.62
2017-10-03T04:43:47.859Z,6.03
2017-10-03T04:46:14.106Z,5.92
2017-10-03T04:48:44.622Z,5.72
2017-10-03T04:51:12.182Z,5.18
2017-10-03T04:53:38.793Z,5.08
2017-10-03T04:56:05.092Z,5.14
2017-10-03T04:58:31.379Z,4.95
2017-10-03T05:00:57.688Z,4.75
2017-10-03T05:03:24.020Z,5.02
2017-10-03T05:05:50.564Z,5.22
2017-10-03T05:18:03.370Z,8.87
2017-10-03T05:20:30.072Z,9.26
2017-10-03T05:22:56.813Z,10.03
2017-10-03T05:25:23.106Z,11.19
2017-10-03T05:27:49.521Z,12.05
2017-10-03T05:30:15.767Z,11.97
2017-10-03T05:32:41.984Z,11.23
2017-10-03T05:35:08.209Z,10.02
2017-10-03T05:37:34.447Z,10.58
2017-10-03T05:40:00.685Z,10.98
2017-10-03T05:42:26.898Z,12.72
2017-10-03T05:44:53.955Z,14.33
2017-10-03T05:47:20.184Z,15.32
2017-10-03T05:49:46.419Z,14.30
2017-10-03T05:52:12.595Z,12.00
2017-10-03T05:54:38.874Z,10.97
2017-10-03T05:57:05.092Z,11.31
2017-10-03T05:59:32.252Z,11.97
2017-10-03T06:01:58.472Z,12.41
2017-10-03T06:04:24.709Z,12.30
2017-10-03T06:06:50.936Z,12.68
2017-10-03T06:09:17.164Z,12.90
2017-10-03T06:11:43.392Z,13.61
2017-10-03T06:14:09.647Z,14.02
2017-10-03T06:16:35.860Z,14.09
2017-10-03T06:19:02.075Z,14.59
2017-10-03T06:21:28.278Z,14.02
2017-10-03T06:23:54.542Z,14.15
2017-10-03T06:26:20.772Z,14.58
2017-10-03T06:28:47.016Z,15.75
2017-10-03T06:31:14.308Z,16.09
2017-10-03T06:33:40.699Z,17.23
2017-10-03T06:36:06.889Z,18.61
2017-10-03T06:38:33.063Z,19.79
2017-10-03T06:40:59.253Z,20.04
2017-10-03T06:43:25.451Z,20.44
2017-10-03T06:45:51.627Z,19.23
2017-10-03T06:48:17.824Z,18.85
2017-10-03T06:50:43.991Z,18.14
2017-10-03T06:53:10.157Z,17.76
2017-10-03T06:55:36.344Z,17.82
2017-10-03T06:58:02.518Z,17.51
2017-10-03T07:00:28.704Z,17.74
2017-10-03T07:02:54.887Z,17.99
2017-10-03T07:05:21.065Z,18.70
2017-10-03T07:07:47.263Z,18.82
2017-10-03T07:10:13.449Z,19.32
2017-10-03T07:12:39.641Z,19.43
2017-10-03T07:15:05.832Z,19.65
2017-10-03T07:17:32.026Z,20.67
2017-10-03T07:19:58.205Z,21.18
2017-10-03T07:22:24.385Z,21.26
2017-10-03T07:24:50.563Z,21.73
2017-10-03T07:27:16.757Z,21.87
2017-10-03T07:29:42.986Z,22.05
2017-10-03T07:32:09.184Z,21.72
2017-10-03T07:34:35.384Z,22.47
2017-10-03T07:37:01.620Z,23.16
2017-10-03T07:39:27.833Z,23.32
2017-10-03T07:41:54.040Z,23.39
2017-10-03T07:44:20.273Z,23.68
2017-10-03T07:46:46.453Z,23.54
2017-10-03T07:49:12.729Z,23.39
2017-10-03T07:51:38.924Z,23.12
2017-10-03T07:54:05.152Z,23.67
2017-10-03T07:56:33.484Z,24.10
2017-10-03T07:58:59.691Z,24.10
2017-10-03T08:01:25.869Z,24.37
2017-10-03T08:03:52.045Z,24.04
2017-10-03T08:06:18.242Z,22.64
2017-10-03T08:08:44.478Z,23.13
2017-10-03T08:11:10.680Z,24.34
2017-10-03T08:13:36.900Z,24.28
2017-10-03T08:16:04.142Z,24.05
2017-10-03T08:18:30.329Z,24.85
2017-10-03T08:20:56.521Z,24.78
2017-10-03T08:23:22.709Z,25.11
2017-10-03T08:25:48.947Z,24.95
2017-10-03T08:28:15.143Z,24.36
2017-10-03T08:30:41.378Z,24.21
2017-10-03T08:33:07.579Z,24.36
2017-10-03T08:35:33.783Z,24.53
2017-10-03T08:37:59.980Z,24.63
2017-10-03T08:40:26.216Z,25.61
2017-10-03T08:42:52.399Z,25.84
2017-10-03T08:45:18.577Z,25.43
2017-10-03T08:47:44.788Z,25.52
2017-10-03T08:50:10.988Z,25.50
2017-10-03T08:52:37.184Z,25.46
2017-10-03T08:55:03.419Z,26.24
2017-10-03T08:57:29.629Z,25.89
2017-10-03T08:59:55.838Z,26.34
2017-10-03T09:02:22.012Z,26.53
2017-10-03T09:04:48.205Z,27.14
2017-10-03T09:07:14.429Z,27.25
2017-10-03T09:09:40.636Z,27.21
2017-10-03T09:12:06.837Z,27.21
2017-10-03T09:14:33.081Z,26.17
2017-10-03T09:16:59.296Z,25.63
2017-10-03T09:19:26.448Z,26.43
2017-10-03T09:21:52.714Z,26.18
2017-10-03T09:24:18.931Z,26.11
2017-10-03T09:41:53.897Z,27.65
2017-10-03T09:44:20.188Z,27.26
2017-10-03T09:46:46.512Z,27.38
2017-10-03T09:49:12.883Z,26.78
2017-10-03T09:51:39.184Z,26.36
2017-10-03T09:54:05.465Z,25.83
2017-10-03T09:56:31.785Z,25.55
2017-10-03T09:58:58.079Z,26.06
2017-10-03T10:01:24.374Z,26.66
2017-10-03T10:03:50.694Z,26.94
2017-10-03T10:06:16.994Z,26.27
2017-10-03T10:08:43.367Z,26.40
2017-10-03T10:11:09.650Z,26.82
2017-10-03T10:13:35.937Z,26.94
2017-10-03T10:16:02.195Z,27.30
2017-10-03T10:18:28.464Z,27.30
2017-10-03T10:20:55.121Z,27.84
2017-10-03T10:23:21.479Z,27.12
2017-10-03T10:25:47.808Z,27.11
2017-10-03T10:28:14.142Z,27.38
2017-10-03T10:30:40.434Z,27.52
2017-10-03T10:33:06.748Z,27.21
2017-10-03T10:35:33.086Z,27.05
2017-10-03T10:37:59.350Z,27.10
2017-10-03T10:40:27.714Z,27.06
2017-10-03T10:42:54.023Z,27.38
2017-10-03T10:45:20.354Z,27.42
2017-10-03T10:47:46.731Z,27.15
2017-10-03T10:50:13.394Z,26.94
2017-10-03T10:52:39.709Z,26.79
2017-10-03T10:55:06.039Z,26.28
2017-10-03T10:57:32.353Z,26.73
2017-10-03T10:59:58.783Z,26.47
2017-10-03T11:02:25.971Z,26.41
2017-10-03T11:04:52.267Z,26.76
2017-10-03T11:07:18.568Z,26.77
2017-10-03T11:09:44.858Z,27.00
2017-10-03T11:12:11.134Z,26.95
2017-10-03T11:14:37.444Z,26.69
2017-10-03T11:17:03.703Z,26.92
2017-10-03T11:19:30.000Z,27.41
2017-10-03T11:21:56.313Z,26.81
2017-10-03T11:24:24.614Z,26.73
2017-10-03T11:26:50.902Z,26.68
2017-10-03T11:29:17.195Z,26.65
2017-10-03T11:31:43.515Z,26.86
2017-10-03T11:34:09.888Z,27.23
2017-10-03T11:36:36.169Z,27.49
2017-10-03T11:39:02.474Z,28.22
2017-10-03T11:41:28.773Z,28.10
2017-10-03T11:43:55.113Z,27.54
2017-10-03T11:46:21.436Z,27.06
2017-10-03T11:48:47.769Z,27.03
2017-10-03T11:51:14.083Z,27.74
2017-10-03T11:53:41.316Z,27.32
2017-10-03T11:56:07.686Z,27.39
2017-10-03T11:58:34.931Z,27.91
2017-10-03T12:01:01.997Z,28.25
2017-10-03T12:03:28.873Z,29.01
2017-10-03T12:05:55.148Z,29.37
2017-10-03T12:08:21.633Z,29.66
2017-10-03T12:10:51.918Z,29.61
2017-10-03T12:13:18.222Z,30.38
2017-10-03T12:15:44.617Z,30.67
2017-10-03T12:18:10.974Z,31.26
2017-10-03T12:20:37.310Z,29.87
2017-10-03T12:23:04.291Z,29.54
2017-10-03T12:25:31.778Z,29.22
2017-10-03T12:27:58.119Z,29.67
2017-10-03T12:30:24.456Z,29.17
2017-10-03T12:32:50.808Z,29.21
2017-10-03T12:35:17.104Z,28.96
2017-10-03T12:37:43.400Z,28.76
2017-10-03T12:40:09.810Z,28.91
2017-10-03T12:42:36.152Z,29.20
2017-10-03T12:45:02.436Z,28.36
2017-10-03T12:47:28.763Z,28.52
2017-10-03T12:49:55.085Z,27.54
2017-10-03T12:52:21.408Z,26.05
2017-10-03T12:54:47.741Z,24.96
2017-10-03T12:57:14.054Z,24.78
2017-10-03T12:59:40.332Z,24.76
2017-10-03T13:02:06.603Z,25.80
2017-10-03T13:04:32.923Z,25.48
2017-10-03T13:06:59.238Z,26.02
2017-10-03T13:09:25.579Z,26.11
2017-10-03T13:11:52.275Z,26.27
2017-10-03T13:14:18.624Z,26.69
2017-10-03T13:16:45.808Z,27.59
2017-10-03T13:19:12.399Z,28.29
2017-10-03T13:21:39.117Z,28.35
2017-10-03T13:24:05.510Z,27.53
2017-10-03T13:26:31.901Z,27.57
2017-10-03T13:28:58.280Z,27.94
2017-10-03T13:31:24.593Z,27.49
2017-10-03T13:33:50.881Z,27.30
2017-10-03T13:36:17.249Z,27.86
2017-10-03T13:38:43.525Z,28.35
2017-10-03T13:41:09.935Z,28.54
2017-10-03T13:43:36.327Z,29.02
2017-10-03T13:46:02.672Z,29.46
2017-10-03T13:48:29.076Z,29.18
2017-10-03T13:50:55.455Z,29.03
2017-10-03T13:53:21.786Z,29.12
2017-10-03T13:55:48.129Z,27.81
2017-10-03T13:58:14.435Z,28.10
2017-10-03T14:00:40.767Z,29.04
2017-10-03T14:03:07.081Z,29.25
2017-10-03T14:05:33.477Z,29.12
2017-10-03T14:08:00.061Z,28.96
2017-10-03T14:10:26.493Z,28.96
2017-10-03T14:12:52.850Z,29.53
2017-10-03T14:15:19.203Z,29.07
2017-10-03T14:17:45.471Z,28.80
2017-10-03T14:20:14.461Z,28.15
2017-10-03T14:22:42.742Z,28.06
2017-10-03T14:25:09.912Z,28.37
2017-10-03T14:27:36.240Z,28.59
2017-10-03T14:30:02.672Z,28.71
2017-10-03T14:32:29.008Z,28.68
2017-10-03T14:34:55.301Z,28.79
2017-10-03T14:37:24.020Z,28.94
2017-10-03T14:39:51.198Z,29.25
2017-10-03T14:42:17.526Z,29.30
2017-10-03T14:44:43.861Z,28.73
2017-10-03T14:47:10.135Z,28.44
2017-10-03T14:49:36.500Z,27.75
2017-10-03T14:52:05.646Z,28.00
2017-10-03T14:54:31.924Z,27.96
2017-10-03T14:56:58.198Z,27.85
2017-10-03T14:59:24.494Z,27.86
2017-10-03T15:14:51.854Z,24.64
2017-10-03T15:17:18.141Z,24.11
2017-10-03T15:19:44.395Z,23.60
2017-10-03T15:22:10.775Z,23.13
2017-10-03T15:27:09.107Z,22.35
2017-10-03T15:29:35.418Z,22.06
2017-10-03T15:32:01.865Z,21.77
2017-10-03T15:34:28.272Z,21.58
2017-10-03T15:36:54.633Z,21.41
2017-10-03T15:39:21.031Z,21.22
2017-10-03T15:41:47.440Z,21.03
2017-10-03T15:44:13.720Z,20.75
2017-10-03T15:46:40.910Z,20.56
2017-10-03T15:49:08.141Z,20.06
2017-10-03T15:51:34.481Z,19.64
2017-10-03T15:54:01.747Z,19.35
2017-10-03T15:56:28.031Z,19.16
2017-10-03T15:58:54.291Z,18.91
2017-10-03T16:01:20.585Z,18.64
2017-10-03T16:03:47.146Z,18.03
2017-10-03T16:06:13.541Z,17.64
2017-10-03T16:08:39.784Z,17.60
2017-10-03T16:11:06.875Z,17.31
2017-10-03T16:13:33.121Z,17.46
2017-10-03T16:15:59.646Z,17.44
2017-10-03T16:18:25.914Z,17.23
2017-10-03T16:20:52.691Z,17.30
2017-10-03T16:23:18.943Z,17.46
2017-10-03T16:25:46.915Z,17.50
2017-10-03T16:28:13.147Z,17.50
2017-10-03T16:33:10.960Z,17.38
2017-10-03T16:35:37.311Z,17.37
2017-10-03T16:38:08.033Z,17.41
2017-10-03T16:40:36.639Z,17.39
2017-10-03T16:43:02.967Z,17.32
2017-10-03T16:45:29.310Z,17.30
2017-10-03T16:47:55.643Z,17.20
2017-10-03T16:50:21.910Z,17.08
2017-10-03T16:52:48.420Z,17.00
2017-10-03T16:55:15.206Z,16.90
2017-10-03T16:57:41.510Z,16.83
2017-10-03T17:00:08.089Z,16.78
2017-10-03T17:02:34.429Z,16.71
2017-10-03T17:05:00.774Z,16.63
2017-10-03T17:07:27.220Z,16.53
2017-10-03T17:09:53.613Z,16.44
2017-10-03T17:12:24.197Z,16.42
2017-10-03T17:14:50.472Z,16.45
2017-10-03T17:17:16.790Z,16.25
2017-10-03T17:19:43.135Z,16.34
2017-10-03T17:22:13.264Z,16.33
2017-10-03T17:24:40.040Z,16.21
2017-10-03T17:27:10.208Z,15.93
2017-10-03T17:32:06.830Z,16.32
2017-10-03T17:34:34.122Z,16.19
2017-10-03T17:37:00.628Z,16.04
2017-10-03T17:54:27.251Z,15.91
2017-10-03T17:56:53.557Z,15.79
2017-10-03T17:59:19.840Z,15.91
2017-10-03T18:01:46.170Z,15.93
2017-10-03T18:16:24.477Z,15.63
2017-10-03T18:18:51.331Z,15.56
2017-10-03T18:21:17.905Z,15.51
2017-10-03T18:23:52.191Z,15.44
2017-10-03T18:26:18.519Z,15.32
2017-10-03T18:28:44.779Z,15.34
2017-10-03T18:31:11.151Z,15.21
2017-10-03T18:33:45.265Z,15.33
2017-10-03T18:36:11.567Z,15.46
2017-10-03T18:38:37.890Z,15.43
2017-10-03T18:41:04.131Z,15.41
2017-10-03T18:43:30.431Z,15.41
2017-10-03T18:45:57.232Z,15.45
2017-10-03T18:48:23.520Z,15.39
2017-10-03T18:50:49.912Z,15.24
2017-10-03T18:53:16.257Z,15.26
2017-10-03T18:55:42.523Z,15.26
2017-10-03T18:58:10.003Z,15.32
2017-10-03T19:00:36.815Z,15.42
2017-10-03T19:03:03.135Z,15.54
2017-10-03T19:05:29.393Z,15.48
2017-10-03T19:07:56.051Z,15.38
2017-10-03T19:10:23.200Z,15.33
2017-10-03T19:12:49.618Z,15.27
2017-10-03T19:15:15.929Z,15.33
2017-10-03T19:17:42.221Z,15.48
2017-10-03T19:20:08.556Z,15.41
2017-10-03T19:22:35.381Z,15.33
2017-10-03T19:25:01.847Z,15.49
2017-10-03T19:27:28.278Z,15.44
2017-10-03T19:29:54.616Z,15.35
2017-10-03T19:32:21.397Z,15.22
2017-10-03T19:34:47.734Z,15.10
2017-10-03T19:37:14.050Z,15.07
2017-10-03T19:39:40.356Z,14.92
2017-10-03T19:42:06.638Z,14.74
2017-10-03T19:44:33.712Z,14.60
2017-10-03T19:46:59.999Z,14.68
2017-10-03T19:49:26.269Z,14.71
2017-10-03T19:51:54.252Z,14.62
2017-10-03T19:54:21.258Z,14.63
2017-10-03T19:56:48.002Z,14.78
2017-10-03T19:59:14.536Z,14.85
2017-10-03T20:01:40.848Z,14.79
2017-10-03T20:04:07.132Z,14.70
2017-10-03T20:06:34.303Z,14.60
2017-10-03T20:09:00.557Z,14.67
2017-10-03T20:11:26.958Z,14.64
2017-10-03T20:13:53.255Z,14.58
2017-10-03T20:16:19.531Z,14.52
2017-10-03T20:18:47.442Z,14.52
2017-10-03T20:21:13.760Z,14.64
2017-10-03T20:23:40.479Z,14.58
2017-10-03T20:26:07.400Z,14.43
2017-10-03T20:28:34.649Z,14.50
2017-10-03T20:31:00.990Z,14.36
2017-10-03T20:33:27.416Z,14.45
2017-10-03T20:35:53.785Z,14.52
2017-10-03T20:38:20.068Z,14.53
2017-10-03T20:40:46.889Z,14.42
2017-10-03T20:43:13.222Z,14.47
2017-10-03T20:45:47.798Z,14.44
2017-10-03T20:48:14.115Z,14.40
2017-10-03T20:50:40.423Z,14.42
2017-10-03T20:53:06.748Z,14.24
2017-10-03T20:55:33.032Z,14.11
2017-10-03T20:57:59.294Z,13.93
2017-10-03T21:00:25.501Z,13.73
2017-10-03T21:02:51.758Z,13.62
2017-10-03T21:05:18.016Z,13.51
2017-10-03T21:07:44.274Z,13.28
2017-10-03T21:10:10.525Z,13.09
2017-10-03T21:12:36.863Z,13.02
2017-10-03T21:15:03.077Z,13.26
2017-10-03T21:17:29.323Z,13.42
2017-10-03T21:19:55.536Z,13.47
2017-10-03T21:22:21.756Z,13.60
2017-10-03T21:24:47.977Z,13.61
2017-10-03T21:27:14.242Z,13.53
2017-10-03T21:29:40.503Z,13.43
2017-10-03T21:32:06.758Z,13.39
2017-10-03T21:34:33.003Z,13.50
2017-10-03T21:36:59.242Z,13.51
2017-10-03T21:39:25.776Z,13.53
2017-10-03T21:41:52.033Z,13.47
2017-10-03T21:44:18.285Z,13.40
2017-10-03T21:46:44.539Z,13.37
2017-10-03T21:49:10.812Z,13.38
2017-10-03T21:51:37.081Z,13.38
2017-10-03T21:54:03.308Z,13.58
2017-10-03T21:56:29.568Z,13.56
2017-10-03T21:58:55.808Z,13.57
2017-10-03T22:01:22.057Z,13.53
2017-10-03T22:03:48.306Z,13.42
2017-10-03T22:06:14.562Z,13.49
2017-10-03T22:08:40.828Z,13.47
2017-10-03T22:11:07.105Z,13.32
2017-10-03T22:13:34.008Z,13.22
2017-10-03T22:16:00.264Z,13.24
2017-10-03T22:18:26.538Z,13.25
2017-10-03T22:20:52.807Z,13.29
2017-10-03T22:23:19.012Z,13.19
2017-10-03T22:25:45.287Z,13.24
2017-10-03T22:28:11.556Z,13.34
2017-10-03T22:30:37.847Z,13.22
2017-10-03T22:33:04.705Z,13.03
2017-10-03T22:35:30.959Z,12.97
2017-10-03T22:37:57.266Z,12.90
2017-10-03T22:40:23.507Z,12.95
2017-10-03T22:42:49.724Z,12.81
2017-10-03T22:45:15.967Z,12.73
2017-10-03T22:47:42.176Z,12.69
2017-10-03T22:50:08.442Z,12.56
2017-10-03T22:52:34.655Z,12.51
2017-10-03T22:55:00.858Z,12.49
2017-10-03T22:57:27.116Z,12.49
2017-10-03T22:59:53.371Z,12.69
2017-10-03T23:02:19.610Z,12.68
2017-10-03T23:04:45.833Z,12.75
2017-10-03T23:07:12.115Z,12.85
2017-10-03T23:09:38.346Z,12.81
2017-10-03T23:12:04.542Z,12.75
2017-10-03T23:14:30.783Z,12.63
2017-10-03T23:16:56.998Z,12.49
2017-10-03T23:19:23.224Z,12.41
2017-10-03T23:21:49.426Z,12.40
2017-10-03T23:24:15.633Z,12.36
2017-10-03T23:26:41.874Z,12.34
2017-10-03T23:29:08.128Z,12.36
2017-10-03T23:31:34.354Z,12.27
2017-10-03T23:34:00.582Z,12.23
2017-10-03T23:36:26.813Z,12.27
2017-10-03T23:38:53.072Z,12.25
2017-10-03T23:41:19.295Z,11.97
2017-10-03T23:43:45.519Z,11.97
2017-10-03T23:46:11.754Z,12.00
2017-10-03T23:48:38.009Z,11.88
2017-10-03T23:51:04.300Z,11.40
2017-10-03T23:53:30.537Z,11.67
2017-10-03T23:55:56.795Z,11.62
2017-10-03T23:58:23.054Z,11.38
